createdAt,value
2023-04-16T00:01:40.998Z,95681.27
2023-04-16T00:04:09.125Z,95679.88
2023-04-16T00:06:37.137Z,95680.67
2023-04-16T00:09:05.059Z,95679.89
2023-04-16T00:11:32.964Z,95679.30
2023-04-16T00:14:00.950Z,95676.72
2023-04-16T00:16:29.119Z,95678.27
2023-04-16T00:18:57.152Z,95676.01
2023-04-16T00:21:26.529Z,95677.41
2023-04-16T00:23:54.573Z,95678.20
2023-04-16T00:26:22.512Z,95676.09
2023-04-16T00:28:50.795Z,95676.38
2023-04-16T00:31:18.799Z,95677.47
2023-04-16T00:33:46.981Z,95677.58
2023-04-16T00:36:14.874Z,95682.08
2023-04-16T00:38:42.826Z,95686.17
2023-04-16T00:41:10.766Z,95686.46
2023-04-16T00:43:38.715Z,95685.05
2023-04-16T00:46:07.288Z,95691.16
2023-04-16T00:48:41.179Z,95693.50
2023-04-16T00:51:09.976Z,95694.45
2023-04-16T00:53:38.305Z,95693.39
2023-04-16T00:56:07.526Z,95693.20
2023-04-16T00:58:35.856Z,95692.65
2023-04-16T01:01:04.050Z,95687.61
2023-04-16T01:03:44.700Z,95690.92
2023-04-16T01:06:13.293Z,95694.33
2023-04-16T01:08:41.311Z,95694.27
2023-04-16T01:11:11.361Z,95695.38
2023-04-16T01:13:39.807Z,95692.27
2023-04-16T01:16:09.750Z,95697.02
2023-04-16T01:18:38.349Z,95696.23
2023-04-16T01:21:06.927Z,95694.95
2023-04-16T01:23:34.923Z,95694.11
2023-04-16T01:26:03.733Z,95695.69
2023-04-16T01:28:31.748Z,95692.38
2023-04-16T01:30:59.774Z,95690.79
2023-04-16T01:33:43.797Z,95687.98
2023-04-16T01:36:12.818Z,95686.38
2023-04-16T01:38:40.853Z,95686.34
2023-04-16T01:41:08.840Z,95688.54
2023-04-16T01:43:38.480Z,95688.85
2023-04-16T01:46:29.460Z,95690.52
2023-04-16T01:48:58.534Z,95691.84
2023-04-16T01:51:27.491Z,95691.08
2023-04-16T01:53:56.022Z,95688.70
2023-04-16T01:56:24.117Z,95689.98
2023-04-16T01:58:53.215Z,95688.45
2023-04-16T02:01:21.253Z,95691.30
2023-04-16T02:03:49.922Z,95689.15
2023-04-16T02:06:18.008Z,95685.05
2023-04-16T02:08:48.042Z,95679.33
2023-04-16T02:11:16.093Z,95677.80
2023-04-16T02:13:44.550Z,95681.52
2023-04-16T02:16:12.898Z,95683.42
2023-04-16T02:18:56.300Z,95686.73
2023-04-16T02:21:24.633Z,95690.00
2023-04-16T02:23:52.600Z,95694.00
2023-04-16T02:26:24.836Z,95689.27
2023-04-16T02:28:52.754Z,95689.14
2023-04-16T02:31:23.555Z,95687.40
2023-04-16T02:33:52.079Z,95686.30
2023-04-16T02:36:20.359Z,95684.73
2023-04-16T02:38:48.589Z,95684.31
2023-04-16T02:41:16.495Z,95681.95
2023-04-16T02:43:44.432Z,95683.73
2023-04-16T02:46:12.450Z,95684.34
2023-04-16T02:48:40.640Z,95686.84
2023-04-16T02:51:08.612Z,95690.20
2023-04-16T02:53:36.806Z,95689.42
2023-04-16T02:56:04.996Z,95691.38
2023-04-16T02:58:32.935Z,95691.06
2023-04-16T03:01:00.975Z,95689.70
2023-04-16T03:03:29.050Z,95687.13
2023-04-16T03:05:57.046Z,95685.05
2023-04-16T03:08:25.191Z,95688.24
2023-04-16T03:10:53.102Z,95692.57
2023-04-16T03:13:21.096Z,95691.08
2023-04-16T03:15:50.074Z,95690.19
2023-04-16T03:18:18.201Z,95693.22
2023-04-16T03:20:46.197Z,95693.54
2023-04-16T03:23:14.210Z,95693.83
2023-04-16T03:25:43.675Z,95693.17
2023-04-16T03:28:11.606Z,95699.77
2023-04-16T03:30:39.669Z,95700.14
2023-04-16T03:33:07.798Z,95702.05
2023-04-16T03:35:35.853Z,95701.89
2023-04-16T03:38:03.816Z,95702.58
2023-04-16T03:40:31.975Z,95707.21
2023-04-16T03:43:00.570Z,95709.63
2023-04-16T03:45:28.631Z,95714.18
2023-04-16T03:47:56.661Z,95711.94
2023-04-16T03:50:26.307Z,95716.41
2023-04-16T03:52:54.356Z,95717.05
2023-04-16T03:55:22.385Z,95713.23
2023-04-16T03:57:50.275Z,95714.56
2023-04-16T04:00:18.409Z,95716.15
2023-04-16T04:03:01.083Z,95716.89
2023-04-16T04:05:29.275Z,95720.71
2023-04-16T04:07:57.264Z,95726.36
2023-04-16T04:10:25.529Z,95729.09
2023-04-16T04:12:54.504Z,95728.95
2023-04-16T04:15:22.414Z,95728.05
2023-04-16T04:17:50.393Z,95732.30
2023-04-16T04:20:18.464Z,95735.30
2023-04-16T04:22:47.424Z,95735.90
2023-04-16T04:25:16.712Z,95740.01
2023-04-16T04:27:44.624Z,95740.84
2023-04-16T04:30:12.579Z,95737.84
2023-04-16T04:32:40.986Z,95737.96
2023-04-16T04:35:09.967Z,95739.59
2023-04-16T04:37:37.904Z,95742.52
2023-04-16T04:40:13.110Z,95741.21
2023-04-16T04:42:41.063Z,95743.97
2023-04-16T04:45:10.132Z,95744.16
2023-04-16T04:47:38.132Z,95744.36
2023-04-16T04:50:06.769Z,95745.56
2023-04-16T04:52:35.003Z,95747.13
2023-04-16T04:55:03.787Z,95743.87
2023-04-16T04:57:31.832Z,95748.05
2023-04-16T04:59:59.854Z,95748.50
2023-04-16T05:02:28.799Z,95747.52
2023-04-16T05:04:56.862Z,95748.93
2023-04-16T05:07:25.150Z,95747.98
2023-04-16T05:09:53.568Z,95748.78
2023-04-16T05:12:21.502Z,95748.23
2023-04-16T05:14:49.604Z,95744.56
2023-04-16T05:17:17.625Z,95748.22
2023-04-16T05:19:45.596Z,95746.90
2023-04-16T05:22:13.459Z,95745.44
2023-04-16T05:24:41.529Z,95752.73
2023-04-16T05:27:09.717Z,95755.35
2023-04-16T05:29:37.725Z,95757.02
2023-04-16T05:32:05.824Z,95751.58
2023-04-16T05:34:33.776Z,95751.26
2023-04-16T05:37:01.796Z,95749.37
2023-04-16T05:39:29.793Z,95746.79
2023-04-16T05:41:57.770Z,95748.13
2023-04-16T05:44:25.957Z,95749.98
2023-04-16T05:46:54.180Z,95750.30
2023-04-16T05:49:22.285Z,95747.36
2023-04-16T05:51:51.080Z,95746.15
2023-04-16T05:54:19.218Z,95746.02
2023-04-16T05:56:47.114Z,95746.98
2023-04-16T05:59:15.006Z,95750.38
2023-04-16T06:01:42.980Z,95751.14
2023-04-16T06:04:11.143Z,95752.52
2023-04-16T06:06:40.297Z,95753.14
2023-04-16T06:09:08.443Z,95753.09
2023-04-16T06:11:36.673Z,95752.34
2023-04-16T06:14:04.586Z,95751.89
2023-04-16T06:16:32.592Z,95748.02
2023-04-16T06:19:00.861Z,95749.61
2023-04-16T06:21:29.215Z,95752.05
2023-04-16T06:23:57.366Z,95755.32
2023-04-16T06:26:25.887Z,95761.52
2023-04-16T06:28:53.835Z,95758.25
2023-04-16T06:31:21.962Z,95756.89
2023-04-16T06:33:49.900Z,95757.20
2023-04-16T06:36:18.151Z,95756.35
2023-04-16T06:38:46.583Z,95756.17
2023-04-16T06:41:14.919Z,95757.20
2023-04-16T06:43:42.911Z,95755.09
2023-04-16T06:46:11.315Z,95757.90
2023-04-16T06:48:39.238Z,95757.19
2023-04-16T06:51:07.352Z,95753.10
2023-04-16T06:53:37.591Z,95755.81
2023-04-16T06:56:06.187Z,95754.52
2023-04-16T06:58:34.254Z,95754.91
2023-04-16T07:01:02.863Z,95757.75
2023-04-16T07:03:31.369Z,95759.11
2023-04-16T07:05:59.576Z,95757.52
2023-04-16T07:08:27.471Z,95753.83
2023-04-16T07:10:55.421Z,95751.55
2023-04-16T07:13:23.395Z,95754.13
2023-04-16T07:15:51.474Z,95750.17
2023-04-16T07:18:20.789Z,95748.41
2023-04-16T07:20:48.888Z,95748.29
2023-04-16T07:23:16.891Z,95748.52
2023-04-16T07:25:44.760Z,95745.59
2023-04-16T07:28:13.021Z,95751.28
2023-04-16T07:30:40.992Z,95748.83
2023-04-16T07:33:09.351Z,95750.32
2023-04-16T07:35:37.656Z,95752.98
2023-04-16T07:38:05.980Z,95746.84
2023-04-16T07:40:33.974Z,95748.55
2023-04-16T07:43:01.991Z,95747.85
2023-04-16T07:45:29.944Z,95743.55
2023-04-16T07:47:58.014Z,95744.08
2023-04-16T07:50:26.196Z,95743.02
2023-04-16T07:52:54.180Z,95740.06
2023-04-16T07:55:22.166Z,95738.91
2023-04-16T07:57:50.473Z,95735.33
2023-04-16T08:00:18.420Z,95739.20
2023-04-16T08:02:46.773Z,95736.73
2023-04-16T08:05:14.896Z,95735.02
2023-04-16T08:07:42.828Z,95732.98
2023-04-16T08:10:11.177Z,95729.89
2023-04-16T08:12:39.269Z,95731.35
2023-04-16T08:15:08.072Z,95726.50
2023-04-16T08:17:37.804Z,95726.75
2023-04-16T08:20:06.962Z,95724.12
2023-04-16T08:22:35.023Z,95721.82
2023-04-16T08:25:04.434Z,95719.27
2023-04-16T08:27:32.371Z,95719.86
2023-04-16T08:30:00.411Z,95722.55
2023-04-16T08:32:28.539Z,95720.74
2023-04-16T08:34:57.289Z,95721.39
2023-04-16T08:37:26.303Z,95722.98
2023-04-16T08:39:54.186Z,95723.35
2023-04-16T08:42:33.487Z,95722.35
2023-04-16T08:45:13.638Z,95722.57
2023-04-16T08:47:45.541Z,95724.55
2023-04-16T08:50:18.446Z,95722.61
2023-04-16T08:52:54.793Z,95723.34
2023-04-16T08:55:26.705Z,95721.94
2023-04-16T08:57:58.698Z,95720.08
2023-04-16T09:00:26.988Z,95723.64
2023-04-16T09:02:55.046Z,95720.91
2023-04-16T09:05:25.801Z,95718.44
2023-04-16T09:07:56.723Z,95723.20
2023-04-16T09:10:27.366Z,95726.64
2023-04-16T09:12:58.244Z,95725.52
2023-04-16T09:15:26.562Z,95721.89
2023-04-16T09:17:54.642Z,95719.52
2023-04-16T09:20:22.865Z,95718.67
2023-04-16T09:22:51.846Z,95715.98
2023-04-16T09:25:22.153Z,95716.23
2023-04-16T09:27:51.024Z,95715.29
2023-04-16T09:30:21.965Z,95714.15
2023-04-16T09:32:51.692Z,95713.49
2023-04-16T09:35:20.804Z,95714.43
2023-04-16T09:37:58.309Z,95715.48
2023-04-16T09:40:30.521Z,95713.14
2023-04-16T09:43:00.630Z,95710.23
2023-04-16T09:45:32.076Z,95706.77
2023-04-16T09:48:05.095Z,95707.12
2023-04-16T09:50:33.148Z,95700.63
2023-04-16T09:53:03.703Z,95698.46
2023-04-16T09:55:32.828Z,95697.73
2023-04-16T09:58:01.804Z,95697.41
2023-04-16T10:00:31.663Z,95695.02
2023-04-16T10:03:07.372Z,95696.31
2023-04-16T10:05:35.722Z,95695.70
2023-04-16T10:08:11.218Z,95691.32
2023-04-16T10:10:40.089Z,95682.52
2023-04-16T10:13:08.696Z,95684.60
2023-04-16T10:15:36.989Z,95684.27
2023-04-16T10:18:06.398Z,95682.30
2023-04-16T10:20:35.325Z,95683.17
2023-04-16T10:23:03.473Z,95677.77
2023-04-16T10:25:32.657Z,95675.61
2023-04-16T10:28:00.777Z,95674.13
2023-04-16T10:30:29.223Z,95672.67
2023-04-16T10:33:00.264Z,95672.90
2023-04-16T10:35:28.670Z,95674.04
2023-04-16T10:37:57.966Z,95672.63
2023-04-16T10:40:27.426Z,95671.59
2023-04-16T10:43:00.689Z,95672.33
2023-04-16T10:45:33.059Z,95671.54
2023-04-16T10:48:06.371Z,95669.11
2023-04-16T10:50:36.491Z,95671.20
2023-04-16T10:53:22.856Z,95668.92
2023-04-16T10:56:03.238Z,95671.54
2023-04-16T10:58:32.727Z,95665.98
2023-04-16T11:01:01.957Z,95660.23
2023-04-16T11:03:33.008Z,95657.60
2023-04-16T11:06:23.898Z,95658.81
2023-04-16T11:08:54.911Z,95655.23
2023-04-16T11:11:23.711Z,95659.02
2023-04-16T11:13:56.464Z,95659.27
2023-04-16T11:16:26.028Z,95657.66
2023-04-16T11:18:56.714Z,95655.23
2023-04-16T11:21:25.407Z,95653.62
2023-04-16T11:23:53.867Z,95654.53
2023-04-16T11:26:29.261Z,95651.67
2023-04-16T11:28:57.398Z,95650.77
2023-04-16T11:31:27.389Z,95650.42
2023-04-16T11:33:56.960Z,95649.92
2023-04-16T11:36:27.470Z,95646.90
2023-04-16T11:39:02.316Z,95646.38
2023-04-16T11:41:30.391Z,95643.65
2023-04-16T11:43:58.293Z,95647.27
2023-04-16T11:46:39.450Z,95638.45
2023-04-16T11:49:07.833Z,95633.21
2023-04-16T11:51:43.987Z,95626.86
2023-04-16T11:54:22.228Z,95625.85
2023-04-16T11:56:51.746Z,95623.77
2023-04-16T11:59:23.213Z,95619.95
2023-04-16T12:01:53.290Z,95616.94
2023-04-16T12:04:26.867Z,95612.83
2023-04-16T12:07:14.657Z,95610.91
2023-04-16T12:09:43.925Z,95603.61
2023-04-16T12:12:30.822Z,95596.61
2023-04-16T12:15:03.308Z,95592.10
2023-04-16T12:17:35.957Z,95596.23
2023-04-16T12:20:12.595Z,95595.56
2023-04-16T12:22:44.638Z,95590.05
2023-04-16T12:25:15.547Z,95593.78
2023-04-16T12:27:55.738Z,95593.73
2023-04-16T12:30:26.380Z,95590.34
2023-04-16T12:33:15.457Z,95587.02
2023-04-16T12:35:44.110Z,95588.23
2023-04-16T12:38:12.587Z,95584.19
2023-04-16T12:40:41.334Z,95578.77
2023-04-16T12:43:11.930Z,95574.34
2023-04-16T12:45:40.735Z,95572.48
2023-04-16T12:48:08.810Z,95568.19
2023-04-16T12:50:36.896Z,95567.14
2023-04-16T12:53:04.925Z,95561.11
2023-04-16T12:55:32.860Z,95556.96
2023-04-16T12:58:01.068Z,95555.44
2023-04-16T13:00:29.145Z,95556.71
2023-04-16T13:02:57.286Z,95556.88
2023-04-16T13:05:25.886Z,95555.30
2023-04-16T13:07:54.205Z,95550.09
2023-04-16T13:10:23.616Z,95548.67
2023-04-16T13:12:51.605Z,95547.73
2023-04-16T13:15:19.696Z,95545.45
2023-04-16T13:17:47.690Z,95543.69
2023-04-16T13:20:15.755Z,95542.66
2023-04-16T13:22:43.757Z,95542.88
2023-04-16T13:25:11.769Z,95540.04
2023-04-16T13:27:39.664Z,95538.50
2023-04-16T13:30:07.985Z,95542.65
2023-04-16T13:32:36.023Z,95549.71
2023-04-16T13:35:04.690Z,95557.42
2023-04-16T13:37:32.755Z,95575.63
2023-04-16T13:40:00.756Z,95575.66
2023-04-16T13:42:28.872Z,95576.73
2023-04-16T13:44:58.288Z,95579.95
2023-04-16T13:47:26.315Z,95582.74
2023-04-16T13:49:54.338Z,95583.71
2023-04-16T13:52:22.302Z,95580.86
2023-04-16T13:54:50.254Z,95585.84
2023-04-16T13:57:21.120Z,95586.66
2023-04-16T13:59:49.574Z,95593.35
2023-04-16T14:02:17.683Z,95592.85
2023-04-16T14:04:46.312Z,95595.34
2023-04-16T14:07:14.696Z,95595.52
2023-04-16T14:09:42.649Z,95591.88
2023-04-16T14:12:10.612Z,95591.60
2023-04-16T14:14:38.670Z,95594.52
2023-04-16T14:17:07.593Z,95595.05
2023-04-16T14:19:35.633Z,95596.27
2023-04-16T14:22:03.615Z,95597.23
2023-04-16T14:24:31.550Z,95596.05
2023-04-16T14:26:59.589Z,95599.06
2023-04-16T14:29:27.610Z,95598.80
2023-04-16T14:31:55.588Z,95602.73
2023-04-16T14:34:23.673Z,95598.61
2023-04-16T14:36:52.101Z,95594.13
2023-04-16T14:39:20.150Z,95593.73
2023-04-16T14:41:48.148Z,95591.77
2023-04-16T14:44:16.065Z,95589.14
2023-04-16T14:46:44.712Z,95587.33
2023-04-16T14:49:14.559Z,95587.17
2023-04-16T14:51:45.251Z,95589.04
2023-04-16T14:54:13.159Z,95584.96
2023-04-16T14:56:41.694Z,95582.55
2023-04-16T14:59:09.787Z,95583.13
2023-04-16T15:01:41.823Z,95584.24
2023-04-16T15:04:10.278Z,95585.33
2023-04-16T15:06:38.526Z,95582.80
2023-04-16T15:09:07.555Z,95580.09
2023-04-16T15:11:35.644Z,95581.77
2023-04-16T15:14:03.645Z,95583.39
2023-04-16T15:16:31.713Z,95584.15
2023-04-16T15:18:59.796Z,95584.89
2023-04-16T15:21:28.153Z,95583.70
2023-04-16T15:23:56.202Z,95586.61
2023-04-16T15:26:24.210Z,95583.36
2023-04-16T15:28:52.225Z,95584.89
2023-04-16T15:31:21.122Z,95590.23
2023-04-16T15:33:49.552Z,95596.73
2023-04-16T15:36:17.481Z,95604.67
2023-04-16T15:38:45.550Z,95608.16
2023-04-16T15:41:13.914Z,95624.01
2023-04-16T15:43:41.963Z,95629.39
2023-04-16T15:46:10.646Z,95612.45
2023-04-16T15:48:38.635Z,95609.27
2023-04-16T15:51:06.638Z,95608.30
2023-04-16T15:53:34.863Z,95611.50
2023-04-16T15:56:02.793Z,95610.57
2023-04-16T15:58:30.842Z,95611.01
2023-04-16T16:00:58.874Z,95611.36
2023-04-16T16:03:27.576Z,95610.17
2023-04-16T16:05:58.201Z,95607.80
2023-04-16T16:08:27.457Z,95608.59
2023-04-16T16:10:55.409Z,95608.58
2023-04-16T16:13:23.454Z,95608.92
2023-04-16T16:15:51.969Z,95605.55
2023-04-16T16:18:22.139Z,95603.95
2023-04-16T16:20:51.948Z,95606.39
2023-04-16T16:23:19.835Z,95604.58
2023-04-16T16:25:47.780Z,95603.42
2023-04-16T16:28:15.791Z,95601.52
2023-04-16T16:30:44.879Z,95601.65
2023-04-16T16:33:14.172Z,95601.23
2023-04-16T16:35:42.775Z,95603.82
2023-04-16T16:38:10.755Z,95603.50
2023-04-16T16:40:39.764Z,95600.85
2023-04-16T16:43:08.037Z,95601.02
2023-04-16T16:45:36.298Z,95602.39
2023-04-16T16:48:04.693Z,95604.13
2023-04-16T16:50:33.338Z,95609.14
2023-04-16T16:53:01.325Z,95608.27
2023-04-16T16:55:29.177Z,95606.73
2023-04-16T16:57:57.226Z,95605.88
2023-04-16T17:00:25.569Z,95607.00
2023-04-16T17:02:53.707Z,95610.53
2023-04-16T17:05:21.960Z,95612.13
2023-04-16T17:07:49.972Z,95615.05
2023-04-16T17:10:21.126Z,95613.63
2023-04-16T17:12:51.181Z,95621.66
2023-04-16T17:15:21.653Z,95627.10
2023-04-16T17:17:50.219Z,95628.98
2023-04-16T17:20:18.449Z,95629.27
2023-04-16T17:22:46.333Z,95633.23
2023-04-16T17:25:14.706Z,95637.66
2023-04-16T17:27:42.646Z,95643.47
2023-04-16T17:30:10.928Z,95642.45
2023-04-16T17:32:38.974Z,95643.23
2023-04-16T17:35:08.935Z,95648.54
2023-04-16T17:37:36.824Z,95652.35
2023-04-16T17:40:07.536Z,95654.21
2023-04-16T17:42:36.309Z,95654.05
2023-04-16T17:45:07.204Z,95655.09
2023-04-16T17:47:36.540Z,95656.52
2023-04-16T17:50:05.085Z,95657.34
2023-04-16T17:52:33.215Z,95659.91
2023-04-16T17:55:01.767Z,95660.93
2023-04-16T17:57:31.067Z,95662.32
2023-04-16T17:59:59.037Z,95661.95
2023-04-16T18:02:27.147Z,95663.34
2023-04-16T18:04:55.628Z,95666.52
2023-04-16T18:07:23.831Z,95664.86
2023-04-16T18:09:54.070Z,95668.21
2023-04-16T18:12:22.126Z,95671.06
2023-04-16T18:14:50.022Z,95670.58
2023-04-16T18:17:18.053Z,95671.78
2023-04-16T18:19:46.029Z,95673.28
2023-04-16T18:22:14.063Z,95671.27
2023-04-16T18:24:42.207Z,95671.83
2023-04-16T18:27:10.124Z,95672.09
2023-04-16T18:29:39.877Z,95672.50
2023-04-16T18:32:11.671Z,95677.41
2023-04-16T18:34:40.270Z,95678.47
2023-04-16T18:37:08.546Z,95677.05
2023-04-16T18:39:37.273Z,95677.83
2023-04-16T18:42:05.329Z,95680.61
2023-04-16T18:44:34.295Z,95680.91
2023-04-16T18:47:02.361Z,95687.73
2023-04-16T18:49:30.485Z,95686.66
2023-04-16T18:51:58.498Z,95686.30
2023-04-16T18:54:28.201Z,95689.02
2023-04-16T18:56:57.763Z,95689.20
2023-04-16T18:59:27.236Z,95691.52
2023-04-16T19:01:55.428Z,95693.55
2023-04-16T19:04:23.639Z,95692.85
2023-04-16T19:06:51.670Z,95692.54
2023-04-16T19:09:20.166Z,95691.34
2023-04-16T19:11:50.714Z,95694.13
2023-04-16T19:14:20.106Z,95695.15
2023-04-16T19:16:48.065Z,95688.25
2023-04-16T19:19:17.568Z,95686.10
2023-04-16T19:21:45.453Z,95686.63
2023-04-16T19:24:13.553Z,95687.81
2023-04-16T19:26:41.670Z,95692.89
2023-04-16T19:29:09.705Z,95691.35
2023-04-16T19:31:37.850Z,95696.61
2023-04-16T19:34:05.815Z,95694.56
2023-04-16T19:36:33.957Z,95695.92
2023-04-16T19:39:01.959Z,95690.44
2023-04-16T19:41:29.883Z,95687.63
2023-04-16T19:43:57.798Z,95687.66
2023-04-16T19:46:25.967Z,95687.04
2023-04-16T19:48:53.989Z,95688.16
2023-04-16T19:51:21.969Z,95686.83
2023-04-16T19:53:49.951Z,95685.81
2023-04-16T19:56:17.993Z,95682.86
2023-04-16T19:58:46.131Z,95680.70
2023-04-16T20:01:14.294Z,95681.23
2023-04-16T20:03:42.382Z,95684.96
2023-04-16T20:06:10.548Z,95681.86
2023-04-16T20:08:38.612Z,95679.86
2023-04-16T20:11:08.662Z,95681.02
2023-04-16T20:13:37.726Z,95679.27
2023-04-16T20:16:05.903Z,95673.77
2023-04-16T20:18:41.468Z,95672.49
2023-04-16T20:21:10.105Z,95671.46
2023-04-16T20:23:38.015Z,95671.61
2023-04-16T20:26:06.254Z,95675.05
2023-04-16T20:28:34.135Z,95672.77
2023-04-16T20:31:02.128Z,95675.08
2023-04-16T20:33:30.055Z,95673.16
2023-04-16T20:35:58.010Z,95671.08
2023-04-16T20:38:26.047Z,95675.80
2023-04-16T20:41:12.508Z,95674.90
2023-04-16T20:43:42.028Z,95673.19
2023-04-16T20:46:11.896Z,95673.05
2023-04-16T20:48:40.051Z,95674.52
2023-04-16T20:51:09.733Z,95672.70
2023-04-16T20:53:38.385Z,95676.23
2023-04-16T20:56:08.384Z,95679.65
2023-04-16T20:58:36.314Z,95680.37
2023-04-16T21:01:06.032Z,95679.59
2023-04-16T21:03:34.117Z,95678.64
2023-04-16T21:06:02.300Z,95676.17
2023-04-16T21:08:30.430Z,95678.61
2023-04-16T21:10:58.381Z,95673.00
2023-04-16T21:13:26.523Z,95672.60
2023-04-16T21:15:54.509Z,95667.87
2023-04-16T21:18:22.467Z,95667.23
2023-04-16T21:20:50.454Z,95667.91
2023-04-16T21:23:18.432Z,95663.73
2023-04-16T21:25:46.418Z,95659.52
2023-04-16T21:28:14.272Z,95659.48
2023-04-16T21:30:42.859Z,95662.10
2023-04-16T21:33:12.957Z,95660.38
2023-04-16T21:35:40.922Z,95659.10
2023-04-16T21:38:08.913Z,95656.73
2023-04-16T21:40:36.826Z,95657.52
2023-04-16T21:43:04.706Z,95660.50
2023-04-16T21:45:32.731Z,95660.33
2023-04-16T21:48:00.914Z,95657.94
2023-04-16T21:50:29.104Z,95654.12
2023-04-16T21:52:57.230Z,95655.05
2023-04-16T21:55:25.779Z,95651.83
2023-04-16T21:57:53.626Z,95652.15
2023-04-16T22:00:21.672Z,95652.55
2023-04-16T22:02:49.772Z,95651.21
2023-04-16T22:05:18.001Z,95655.67
2023-04-16T22:07:46.012Z,95655.83
2023-04-16T22:10:15.164Z,95651.09
2023-04-16T22:12:47.336Z,95651.23
2023-04-16T22:15:15.572Z,95651.71
2023-04-16T22:17:43.991Z,95651.36
2023-04-16T22:20:13.422Z,95649.33
2023-04-16T22:22:42.372Z,95648.39
2023-04-16T22:25:11.541Z,95649.74
2023-04-16T22:27:39.761Z,95648.94
2023-04-16T22:30:08.466Z,95649.27
2023-04-16T22:32:36.706Z,95645.86
2023-04-16T22:35:05.233Z,95641.30
2023-04-16T22:37:33.612Z,95638.83
2023-04-16T22:40:01.579Z,95639.50
2023-04-16T22:42:29.579Z,95639.08
2023-04-16T22:44:57.580Z,95640.27
2023-04-16T22:47:25.594Z,95637.52
2023-04-16T22:49:53.960Z,95641.30
2023-04-16T22:52:21.936Z,95640.45
2023-04-16T22:54:49.956Z,95640.93
2023-04-16T22:57:21.210Z,95639.52
2023-04-16T22:59:49.197Z,95638.19
2023-04-16T23:02:17.582Z,95636.41
2023-04-16T23:04:46.509Z,95635.61
2023-04-16T23:07:15.157Z,95632.86
2023-04-16T23:09:43.098Z,95630.20
2023-04-16T23:12:11.089Z,95630.67
2023-04-16T23:14:39.082Z,95630.05
2023-04-16T23:17:07.115Z,95627.80
2023-04-16T23:19:35.013Z,95627.10
2023-04-16T23:22:03.455Z,95627.42
2023-04-16T23:24:31.405Z,95623.58
2023-04-16T23:26:59.390Z,95618.98
2023-04-16T23:29:27.347Z,95619.53
2023-04-16T23:31:55.253Z,95616.26
2023-04-16T23:34:23.165Z,95612.34
2023-04-16T23:36:51.557Z,95610.83
2023-04-16T23:39:19.547Z,95607.44
2023-04-16T23:41:47.499Z,95606.11
2023-04-16T23:44:16.509Z,95605.97
2023-04-16T23:46:44.504Z,95607.05
2023-04-16T23:49:12.764Z,95606.70
2023-04-16T23:51:41.352Z,95607.77
2023-04-16T23:54:09.337Z,95607.71
2023-04-16T23:56:37.373Z,95605.71
2023-04-16T23:59:05.694Z,95603.35
